createdAt,value
2022-08-22T00:01:37.887Z,2.80
2022-08-22T00:02:47.239Z,2.40
2022-08-22T00:03:03.074Z,1.60
2022-08-22T00:04:10.991Z,2.40
2022-08-22T00:07:06.578Z,2.10
2022-08-22T00:09:54.036Z,2.30
2022-08-22T00:12:36.300Z,2.17
2022-08-22T00:15:42.886Z,2.50
2022-08-22T00:18:18.026Z,2.73
2022-08-22T00:20:56.955Z,2.47
2022-08-22T00:24:01.598Z,2.30
2022-08-22T00:26:43.401Z,2.20
2022-08-22T00:29:20.338Z,2.60
2022-08-22T00:32:11.401Z,2.70
2022-08-22T00:35:10.082Z,2.90
2022-08-22T00:38:09.114Z,2.60
2022-08-22T00:41:03.780Z,3.00
2022-08-22T00:43:53.424Z,2.50
2022-08-22T00:46:45.390Z,2.57
2022-08-22T00:49:49.873Z,2.20
2022-08-22T00:52:30.507Z,2.40
2022-08-22T00:55:34.978Z,2.90
2022-08-22T00:58:07.613Z,2.53
2022-08-22T01:00:43.617Z,2.60
2022-08-22T01:03:28.712Z,2.60
2022-08-22T01:06:10.470Z,2.70
2022-08-22T01:08:55.858Z,2.53
2022-08-22T01:11:48.815Z,2.23
2022-08-22T01:14:18.549Z,2.50
2022-08-22T01:17:26.120Z,2.50
2022-08-22T01:20:29.406Z,2.17
2022-08-22T01:23:33.304Z,2.33
2022-08-22T01:26:21.829Z,2.10
2022-08-22T01:29:27.755Z,2.23
2022-08-22T01:32:32.385Z,2.00
2022-08-22T01:35:30.595Z,2.60
2022-08-22T01:38:06.173Z,2.20
2022-08-22T01:40:54.022Z,2.50
2022-08-22T01:44:03.225Z,2.33
2022-08-22T01:46:51.696Z,2.50
2022-08-22T01:49:33.888Z,2.70
2022-08-22T01:52:14.486Z,2.17
2022-08-22T01:54:51.836Z,2.43
2022-08-22T01:57:19.374Z,2.20
2022-08-22T01:59:59.107Z,2.90
2022-08-22T02:02:47.921Z,2.43
2022-08-22T02:05:37.075Z,3.17
2022-08-22T02:08:45.742Z,2.70
2022-08-22T02:11:37.442Z,2.20
2022-08-22T02:14:18.654Z,2.73
2022-08-22T02:16:52.563Z,2.00
2022-08-22T02:19:49.645Z,2.53
2022-08-22T02:22:29.371Z,2.20
2022-08-22T02:25:10.450Z,2.33
2022-08-22T02:27:57.706Z,2.27
2022-08-22T02:30:50.550Z,2.27
2022-08-22T02:33:32.579Z,2.50
2022-08-22T02:36:09.902Z,2.27
2022-08-22T02:38:47.672Z,2.57
2022-08-22T02:41:44.253Z,2.30
2022-08-22T02:44:22.592Z,2.20
2022-08-22T02:47:05.178Z,2.80
2022-08-22T02:49:43.668Z,2.73
2022-08-22T02:52:49.254Z,2.50
2022-08-22T02:55:29.446Z,2.60
2022-08-22T02:58:24.174Z,2.20
2022-08-22T03:01:22.405Z,2.00
2022-08-22T03:03:50.181Z,3.13
2022-08-22T03:06:40.017Z,2.63
2022-08-22T03:09:30.909Z,3.00
2022-08-22T03:12:32.117Z,2.47
2022-08-22T03:15:24.459Z,1.80
2022-08-22T03:17:53.962Z,2.70
2022-08-22T03:20:59.134Z,2.90
2022-08-22T03:23:38.684Z,1.87
2022-08-22T03:26:17.554Z,2.70
2022-08-22T03:29:00.152Z,2.33
2022-08-22T03:31:28.625Z,2.20
2022-08-22T03:34:16.447Z,2.80
2022-08-22T03:37:08.256Z,2.07
2022-08-22T03:40:01.071Z,2.37
2022-08-22T03:43:00.081Z,2.23
2022-08-22T03:45:59.125Z,2.37
2022-08-22T03:48:54.979Z,2.80
2022-08-22T03:51:46.840Z,2.63
2022-08-22T03:55:00.871Z,2.57
2022-08-22T03:57:46.102Z,2.10
2022-08-22T04:00:46.019Z,2.37
2022-08-22T04:03:41.630Z,2.60
2022-08-22T04:06:44.111Z,1.80
2022-08-22T04:09:30.029Z,2.50
2022-08-22T04:12:33.450Z,2.60
2022-08-22T04:15:28.080Z,2.20
2022-08-22T04:18:24.038Z,2.37
2022-08-22T04:20:56.662Z,2.53
2022-08-22T04:24:01.055Z,2.53
2022-08-22T04:26:52.430Z,1.93
2022-08-22T04:29:28.229Z,2.33
2022-08-22T04:32:06.899Z,2.60
2022-08-22T04:34:39.837Z,2.40
2022-08-22T04:37:41.747Z,2.80
2022-08-22T04:40:16.852Z,2.80
2022-08-22T04:42:51.049Z,2.50
2022-08-22T04:45:39.526Z,2.93
2022-08-22T04:48:14.494Z,2.10
2022-08-22T04:50:51.306Z,2.50
2022-08-22T04:53:32.553Z,2.47
2022-08-22T04:56:07.667Z,2.40
2022-08-22T04:58:48.911Z,2.60
2022-08-22T05:01:41.626Z,3.10
2022-08-22T05:04:19.775Z,2.33
2022-08-22T05:06:57.711Z,2.30
2022-08-22T05:09:28.726Z,2.67
2022-08-22T05:12:01.747Z,2.23
2022-08-22T05:14:40.549Z,2.27
2022-08-22T05:17:10.709Z,3.17
2022-08-22T05:19:44.215Z,2.17
2022-08-22T05:22:18.705Z,2.57
2022-08-22T05:24:49.567Z,2.53
2022-08-22T05:27:28.579Z,2.83
2022-08-22T05:30:09.548Z,2.60
2022-08-22T05:32:47.797Z,2.00
2022-08-22T05:35:20.543Z,2.43
2022-08-22T05:37:53.255Z,2.70
2022-08-22T05:40:24.644Z,2.90
2022-08-22T05:42:53.116Z,2.53
2022-08-22T05:45:24.398Z,2.17
2022-08-22T05:47:57.596Z,2.73
2022-08-22T05:50:35.681Z,2.50
2022-08-22T05:53:35.325Z,2.40
2022-08-22T05:56:04.745Z,2.60
2022-08-22T05:58:44.600Z,3.90
2022-08-22T06:01:29.802Z,2.40
2022-08-22T06:04:16.021Z,2.10
2022-08-22T06:07:18.641Z,2.00
2022-08-22T06:09:48.047Z,2.90
2022-08-22T06:12:24.454Z,2.27
2022-08-22T06:15:11.603Z,2.50
2022-08-22T06:17:47.122Z,2.07
2022-08-22T06:20:23.273Z,2.50
2022-08-22T06:22:54.014Z,2.27
2022-08-22T06:25:29.105Z,2.20
2022-08-22T06:27:58.607Z,2.57
2022-08-22T06:30:28.291Z,2.20
2022-08-22T06:33:01.299Z,2.60
2022-08-22T06:35:55.422Z,1.87
2022-08-22T06:38:29.335Z,1.93
2022-08-22T06:40:58.778Z,1.60
2022-08-22T06:43:25.914Z,1.90
2022-08-22T06:45:53.374Z,1.73
2022-08-22T06:48:23.746Z,1.93
2022-08-22T06:50:56.978Z,2.23
2022-08-22T06:53:48.185Z,1.83
2022-08-22T06:56:25.546Z,2.20
2022-08-22T06:59:00.878Z,1.80
2022-08-22T07:01:33.374Z,1.97
2022-08-22T07:04:09.177Z,1.67
2022-08-22T07:06:50.042Z,2.20
2022-08-22T07:09:24.120Z,2.13
2022-08-22T07:11:52.404Z,2.30
2022-08-22T07:14:31.785Z,2.87
2022-08-22T07:17:02.023Z,3.40
2022-08-22T07:19:32.560Z,1.70
2022-08-22T07:22:10.957Z,1.83
2022-08-22T07:24:44.538Z,1.90
2022-08-22T07:27:17.279Z,2.20
2022-08-22T07:30:09.995Z,2.10
2022-08-22T07:32:57.757Z,2.20
2022-08-22T07:35:53.190Z,2.77
2022-08-22T07:38:42.488Z,1.90
2022-08-22T07:41:23.602Z,2.00
2022-08-22T07:43:54.959Z,1.70
2022-08-22T07:46:40.942Z,1.97
2022-08-22T07:49:21.279Z,2.00
2022-08-22T07:52:01.281Z,1.70
2022-08-22T07:54:46.894Z,1.30
2022-08-22T07:57:26.698Z,1.83
2022-08-22T07:59:57.954Z,1.53
2022-08-22T08:02:25.777Z,1.97
2022-08-22T08:04:55.829Z,1.73
2022-08-22T08:07:26.647Z,1.90
2022-08-22T08:09:59.500Z,1.27
2022-08-22T08:12:38.323Z,1.50
2022-08-22T08:15:09.564Z,1.60
2022-08-22T08:17:38.662Z,1.63
2022-08-22T08:20:12.306Z,2.00
2022-08-22T08:22:42.896Z,1.47
2022-08-22T08:25:15.530Z,2.07
2022-08-22T08:28:01.045Z,1.40
2022-08-22T08:30:45.415Z,1.57
2022-08-22T08:33:26.080Z,1.40
2022-08-22T08:36:03.881Z,1.63
2022-08-22T08:38:57.917Z,1.83
2022-08-22T08:41:46.516Z,1.60
2022-08-22T08:44:30.380Z,1.57
2022-08-22T08:47:27.922Z,1.87
2022-08-22T08:49:57.399Z,2.73
2022-08-22T08:52:37.059Z,1.80
2022-08-22T08:55:19.821Z,1.90
2022-08-22T08:58:06.539Z,1.90
2022-08-22T09:00:45.736Z,1.70
2022-08-22T09:03:43.805Z,1.87
2022-08-22T09:06:42.613Z,1.90
2022-08-22T09:09:27.534Z,2.20
2022-08-22T09:12:26.376Z,2.27
2022-08-22T09:15:11.795Z,2.23
2022-08-22T09:17:59.956Z,2.00
2022-08-22T09:20:51.265Z,2.13
2022-08-22T09:24:14.166Z,1.90
2022-08-22T09:27:01.336Z,1.97
2022-08-22T09:29:51.675Z,1.97
2022-08-22T09:32:28.631Z,2.33
2022-08-22T09:35:18.662Z,2.07
2022-08-22T09:38:06.897Z,2.00
2022-08-22T09:40:52.288Z,2.10
2022-08-22T09:43:23.782Z,1.97
2022-08-22T09:46:36.632Z,2.07
2022-08-22T09:49:14.414Z,2.40
2022-08-22T09:52:05.166Z,3.50
2022-08-22T09:54:49.281Z,2.30
2022-08-22T09:57:34.723Z,4.37
2022-08-22T10:00:13.880Z,2.50
2022-08-22T10:03:28.448Z,2.20
2022-08-22T10:06:05.539Z,2.03
2022-08-22T10:08:57.406Z,1.97
2022-08-22T10:11:38.819Z,2.80
2022-08-22T10:14:22.183Z,2.43
2022-08-22T10:17:21.766Z,2.13
2022-08-22T10:20:00.533Z,2.03
2022-08-22T10:22:49.184Z,2.00
2022-08-22T10:25:33.335Z,2.10
2022-08-22T10:28:15.034Z,2.50
2022-08-22T10:31:11.997Z,2.33
2022-08-22T10:33:46.102Z,2.03
2022-08-22T10:36:19.326Z,1.80
2022-08-22T10:38:52.345Z,2.03
2022-08-22T10:41:27.015Z,2.17
2022-08-22T10:44:06.600Z,2.30
2022-08-22T10:46:42.234Z,2.10
2022-08-22T10:49:22.592Z,1.77
2022-08-22T10:52:15.876Z,1.80
2022-08-22T10:54:43.311Z,1.80
2022-08-22T10:57:28.417Z,2.07
2022-08-22T11:00:22.745Z,2.33
2022-08-22T11:03:15.105Z,1.70
2022-08-22T11:05:50.937Z,1.93
2022-08-22T11:08:24.033Z,1.83
2022-08-22T11:10:56.115Z,2.07
2022-08-22T11:13:47.722Z,2.13
2022-08-22T11:16:48.266Z,2.43
2022-08-22T11:19:28.173Z,1.83
2022-08-22T11:22:10.221Z,2.17
2022-08-22T11:25:11.602Z,1.87
2022-08-22T11:28:01.588Z,2.60
2022-08-22T11:30:44.482Z,1.90
2022-08-22T11:33:46.389Z,1.60
2022-08-22T11:36:20.014Z,2.40
2022-08-22T11:39:20.843Z,2.20
2022-08-22T11:42:09.068Z,2.00
2022-08-22T11:44:50.342Z,1.93
2022-08-22T11:47:26.698Z,2.30
2022-08-22T11:50:23.101Z,1.80
2022-08-22T11:53:13.340Z,2.70
2022-08-22T11:55:59.141Z,2.20
2022-08-22T11:58:33.078Z,2.70
2022-08-22T12:01:18.873Z,2.60
2022-08-22T12:03:58.657Z,2.20
2022-08-22T12:06:43.304Z,2.37
2022-08-22T12:09:29.822Z,2.30
2022-08-22T12:12:21.706Z,2.50
2022-08-22T12:15:22.033Z,2.00
2022-08-22T12:18:20.142Z,2.20
2022-08-22T12:21:18.181Z,3.20
2022-08-22T12:24:11.196Z,2.37
2022-08-22T12:27:07.761Z,2.03
2022-08-22T12:29:58.990Z,3.47
2022-08-22T12:32:54.897Z,2.50
2022-08-22T12:35:29.839Z,2.33
2022-08-22T12:38:29.135Z,2.90
2022-08-22T12:41:35.645Z,2.43
2022-08-22T12:44:17.724Z,2.83
2022-08-22T12:47:00.317Z,2.17
2022-08-22T12:49:38.407Z,3.13
2022-08-22T12:52:21.859Z,2.80
2022-08-22T12:55:07.680Z,2.97
2022-08-22T12:57:54.437Z,3.03
2022-08-22T13:00:34.985Z,2.67
2022-08-22T13:03:32.513Z,2.57
2022-08-22T13:06:07.670Z,2.57
2022-08-22T13:08:44.619Z,2.50
2022-08-22T13:11:22.762Z,2.33
2022-08-22T13:13:56.437Z,2.40
2022-08-22T13:16:26.181Z,2.30
2022-08-22T13:19:08.025Z,2.50
2022-08-22T13:21:48.328Z,2.53
2022-08-22T13:24:22.783Z,3.60
2022-08-22T13:27:14.950Z,2.60
2022-08-22T13:29:50.505Z,3.17
2022-08-22T13:32:49.594Z,2.87
2022-08-22T13:35:23.903Z,2.83
2022-08-22T13:37:57.502Z,2.30
2022-08-22T13:40:30.594Z,3.00
2022-08-22T13:43:07.456Z,2.87
2022-08-22T13:45:36.474Z,2.43
2022-08-22T13:48:11.398Z,2.67
2022-08-22T13:51:04.194Z,2.80
2022-08-22T13:54:02.003Z,2.70
2022-08-22T13:56:38.951Z,2.47
2022-08-22T13:59:47.156Z,2.90
2022-08-22T14:02:30.742Z,2.70
2022-08-22T14:05:05.314Z,2.53
2022-08-22T14:07:52.946Z,2.37
2022-08-22T14:10:25.914Z,2.60
2022-08-22T14:12:57.424Z,2.70
2022-08-22T14:15:46.091Z,2.30
2022-08-22T14:24:55.996Z,2.40
2022-08-22T14:27:34.320Z,3.30
2022-08-22T14:30:32.669Z,2.13
2022-08-22T14:33:13.171Z,2.40
2022-08-22T14:35:52.737Z,2.90
2022-08-22T14:38:31.542Z,2.73
2022-08-22T14:41:28.580Z,2.80
2022-08-22T14:44:31.065Z,3.23
2022-08-22T14:47:15.821Z,2.90
2022-08-22T14:49:58.097Z,2.60
2022-08-22T14:52:36.268Z,2.70
2022-08-22T14:55:39.294Z,3.07
2022-08-22T15:01:15.934Z,2.97
2022-08-22T15:04:19.228Z,2.20
2022-08-22T15:10:31.572Z,3.03
2022-08-22T15:13:02.414Z,2.63
2022-08-22T15:15:54.417Z,2.80
2022-08-22T15:18:28.755Z,2.53
2022-08-22T15:21:26.007Z,2.67
2022-08-22T15:23:57.142Z,2.73
2022-08-22T15:26:31.292Z,2.30
2022-08-22T15:29:07.816Z,2.80
2022-08-22T15:31:35.605Z,2.90
2022-08-22T15:34:19.652Z,2.60
2022-08-22T15:37:28.404Z,3.30
2022-08-22T15:40:29.017Z,2.87
2022-08-22T15:42:58.336Z,2.20
2022-08-22T15:45:34.813Z,2.10
2022-08-22T15:48:08.957Z,3.33
2022-08-22T15:50:58.128Z,3.00
2022-08-22T15:53:45.024Z,3.00
2022-08-22T15:56:11.652Z,2.90
2022-08-22T15:58:48.139Z,2.23
2022-08-22T16:01:19.752Z,2.77
2022-08-22T16:04:02.152Z,2.53
2022-08-22T16:06:51.073Z,2.70
2022-08-22T16:09:40.805Z,2.63
2022-08-22T16:12:25.786Z,2.93
2022-08-22T16:14:53.290Z,3.00
2022-08-22T16:17:26.016Z,2.30
2022-08-22T16:20:07.854Z,2.80
2022-08-22T16:22:56.447Z,3.13
2022-08-22T16:25:44.842Z,3.10
2022-08-22T16:28:54.417Z,2.70
2022-08-22T16:31:34.794Z,2.93
2022-08-22T16:34:16.594Z,2.70
2022-08-22T16:37:03.312Z,2.63
2022-08-22T16:39:41.480Z,2.40
2022-08-22T16:42:14.829Z,2.87
2022-08-22T16:44:54.881Z,2.40
2022-08-22T16:47:23.464Z,3.17
2022-08-22T16:49:55.949Z,3.07
2022-08-22T16:52:25.877Z,3.67
2022-08-22T16:55:08.479Z,3.30
2022-08-22T16:58:05.675Z,3.43
2022-08-22T17:00:50.974Z,3.10
2022-08-22T17:03:34.111Z,2.80
2022-08-22T17:06:20.609Z,2.87
2022-08-22T17:08:49.997Z,2.60
2022-08-22T17:11:38.550Z,2.60
2022-08-22T17:14:20.531Z,3.20
2022-08-22T17:16:55.025Z,3.00
2022-08-22T17:19:58.902Z,3.20
2022-08-22T17:22:33.095Z,3.33
2022-08-22T17:25:27.998Z,2.70
2022-08-22T17:28:20.951Z,2.77
2022-08-22T17:31:03.439Z,2.70
2022-08-22T17:34:07.740Z,2.73
2022-08-22T17:36:56.671Z,4.40
2022-08-22T17:39:51.800Z,3.47
2022-08-22T17:42:49.709Z,7.60
2022-08-22T17:45:30.720Z,3.27
2022-08-22T17:48:19.478Z,3.40
2022-08-22T17:51:32.815Z,2.87
2022-08-22T17:54:11.974Z,3.17
2022-08-22T17:57:05.835Z,3.80
2022-08-22T17:59:57.669Z,5.90
2022-08-22T18:02:39.309Z,3.50
2022-08-22T18:08:38.125Z,3.20
2022-08-22T18:11:40.077Z,3.10
2022-08-22T18:14:13.797Z,3.63
2022-08-22T18:16:56.912Z,3.53
2022-08-22T18:19:23.543Z,2.67
2022-08-22T18:22:19.550Z,3.57
2022-08-22T18:25:18.187Z,3.33
2022-08-22T18:27:56.767Z,3.47
2022-08-22T18:30:30.840Z,4.27
2022-08-22T18:33:33.194Z,3.50
2022-08-22T18:36:21.702Z,3.93
2022-08-22T18:39:06.619Z,4.10
2022-08-22T18:41:38.739Z,3.47
2022-08-22T18:44:19.666Z,2.87
2022-08-22T18:46:50.972Z,2.70
2022-08-22T18:49:19.519Z,2.77
2022-08-22T18:52:08.302Z,2.83
2022-08-22T18:54:59.462Z,3.07
2022-08-22T18:58:14.722Z,3.40
2022-08-22T19:01:01.174Z,3.20
2022-08-22T19:03:36.002Z,3.00
2022-08-22T19:06:39.604Z,2.80
2022-08-22T19:09:44.774Z,4.03
2022-08-22T19:12:31.176Z,3.33
2022-08-22T19:15:20.441Z,3.70
2022-08-22T19:17:59.340Z,3.67
2022-08-22T19:20:51.967Z,3.80
2022-08-22T19:23:43.508Z,3.27
2022-08-22T19:26:28.569Z,3.40
2022-08-22T19:29:02.364Z,3.40
2022-08-22T19:31:42.826Z,3.20
2022-08-22T19:34:19.802Z,2.80
2022-08-22T19:37:06.698Z,3.47
2022-08-22T19:39:42.289Z,2.80
2022-08-22T19:42:21.273Z,3.70
2022-08-22T19:44:53.771Z,3.80
2022-08-22T19:47:29.102Z,2.90
2022-08-22T19:49:58.590Z,3.77
2022-08-22T19:52:57.872Z,3.60
2022-08-22T19:55:33.103Z,3.63
2022-08-22T19:58:31.041Z,3.53
2022-08-22T20:01:10.112Z,3.60
2022-08-22T20:03:54.744Z,3.20
2022-08-22T20:06:45.744Z,3.20
2022-08-22T20:09:48.516Z,3.13
2022-08-22T20:12:22.621Z,4.00
2022-08-22T20:14:49.989Z,3.47
2022-08-22T20:17:25.571Z,3.33
2022-08-22T20:20:17.187Z,3.30
2022-08-22T20:23:22.557Z,3.70
2022-08-22T20:25:52.877Z,3.67
2022-08-22T20:28:47.142Z,3.63
2022-08-22T20:31:24.198Z,3.43
2022-08-22T20:34:19.636Z,3.80
2022-08-22T20:36:55.963Z,3.20
2022-08-22T20:39:51.378Z,3.63
2022-08-22T20:42:27.317Z,3.20
2022-08-22T20:44:56.091Z,3.90
2022-08-22T20:47:26.442Z,3.20
2022-08-22T20:50:03.159Z,3.43
2022-08-22T20:52:32.843Z,3.30
2022-08-22T20:55:08.260Z,3.40
2022-08-22T20:57:48.892Z,3.27
2022-08-22T21:00:21.868Z,3.40
2022-08-22T21:03:07.845Z,3.60
2022-08-22T21:05:44.549Z,3.80
2022-08-22T21:08:13.546Z,3.93
2022-08-22T21:11:00.225Z,3.00
2022-08-22T21:13:33.961Z,4.23
2022-08-22T21:16:20.011Z,3.70
2022-08-22T21:18:49.451Z,3.70
2022-08-22T21:21:31.084Z,3.70
2022-08-22T21:24:04.750Z,3.57
2022-08-22T21:26:46.199Z,3.40
2022-08-22T21:29:12.959Z,3.73
2022-08-22T21:31:49.962Z,4.47
2022-08-22T21:34:29.589Z,3.93
2022-08-22T21:37:12.106Z,4.17
2022-08-22T21:39:49.810Z,4.43
2022-08-22T21:42:30.989Z,4.67
2022-08-22T21:45:02.686Z,4.20
2022-08-22T21:47:33.926Z,4.53
2022-08-22T21:50:06.158Z,4.23
2022-08-22T21:52:36.315Z,3.80
2022-08-22T21:55:15.739Z,3.33
2022-08-22T21:57:42.893Z,4.10
2022-08-22T22:00:48.846Z,4.07
2022-08-22T22:03:21.850Z,4.30
2022-08-22T22:05:50.665Z,4.47
2022-08-22T22:08:17.693Z,4.27
2022-08-22T22:10:46.958Z,4.10
2022-08-22T22:13:14.038Z,4.00
2022-08-22T22:15:45.032Z,4.50
2022-08-22T22:18:14.334Z,4.00
2022-08-22T22:20:42.178Z,4.73
2022-08-22T22:23:09.432Z,4.20
2022-08-22T22:25:39.541Z,4.53
2022-08-22T22:28:14.167Z,4.30
2022-08-22T22:30:42.470Z,4.50
2022-08-22T22:33:10.001Z,4.83
2022-08-22T22:35:39.181Z,4.60
2022-08-22T22:38:06.555Z,4.97
2022-08-22T22:40:33.381Z,4.33
2022-08-22T22:43:00.109Z,4.80
2022-08-22T22:45:26.808Z,4.07
2022-08-22T22:47:53.546Z,3.83
2022-08-22T22:50:20.319Z,4.30
2022-08-22T22:52:46.938Z,4.07
2022-08-22T22:55:24.753Z,4.97
2022-08-22T22:57:59.136Z,4.60
2022-08-22T23:00:29.173Z,4.83
2022-08-22T23:02:58.963Z,5.30
2022-08-22T23:05:25.655Z,4.87
2022-08-22T23:07:52.320Z,4.33
2022-08-22T23:10:22.037Z,4.77
2022-08-22T23:12:48.982Z,4.57
2022-08-22T23:15:16.673Z,5.17
2022-08-22T23:17:43.700Z,4.10
2022-08-22T23:20:10.863Z,4.77
2022-08-22T23:22:37.765Z,4.83
2022-08-22T23:25:05.224Z,4.37
2022-08-22T23:27:32.048Z,5.00
2022-08-22T23:29:58.659Z,4.97
2022-08-22T23:32:25.379Z,5.17
2022-08-22T23:34:53.695Z,4.67
2022-08-22T23:37:22.103Z,3.97
2022-08-22T23:39:49.433Z,4.77
2022-08-22T23:42:18.002Z,5.00
2022-08-22T23:44:45.710Z,5.37
2022-08-22T23:47:13.963Z,4.87
2022-08-22T23:49:41.479Z,4.60
2022-08-22T23:52:09.551Z,4.70
2022-08-22T23:54:36.412Z,4.90
2022-08-22T23:57:12.025Z,4.70
2022-08-22T23:59:44.609Z,5.37
